Terminal Aerodrome Forecast
Issued by NWS Blacksburg, VA

Home | Current Version | Previous Version | Text Only | Print | Product List | Glossary On
Versions: 1 2 3 4 5 6 7 8 9 10 11 12 13 14 15 16 17 18 19 20 21 22 23 24 25 26 27 28 29 30 31 32 33
000
FTUS41 KRNK 242341
TAFLYH
TAF
KLYH 242341Z 2500/2524 05007KT P6SM VCSH SCT008 BKN040 OVC100
      TEMPO 2500/2501 BKN008
     FM250200 05005KT P6SM BKN035 OVC100
     FM250600 04005KT 5SM BR BKN035
     FM251500 05007KT P6SM BKN060=

USA.gov is the U.S. government's official web portal to all federal, state and local government web resources and services.